createdAt,value
2023-12-09T00:01:46.686Z,91.70
2023-12-09T00:04:13.969Z,91.58
2023-12-09T00:06:51.483Z,91.55
2023-12-09T00:09:21.815Z,91.18
2023-12-09T00:11:49.001Z,91.34
2023-12-09T00:14:16.336Z,91.35
2023-12-09T00:16:46.638Z,91.47
2023-12-09T00:19:14.599Z,91.16
2023-12-09T00:21:42.256Z,91.43
2023-12-09T00:24:15.330Z,91.10
2023-12-09T00:26:42.649Z,90.70
2023-12-09T00:29:11.929Z,90.55
2023-12-09T00:31:39.054Z,90.52
2023-12-09T00:34:06.908Z,90.38
2023-12-09T00:36:34.539Z,90.47
2023-12-09T00:39:04.092Z,90.51
2023-12-09T00:41:33.090Z,90.32
2023-12-09T00:44:00.201Z,90.37
2023-12-09T00:46:27.414Z,89.80
2023-12-09T00:48:55.220Z,90.12
2023-12-09T00:51:22.588Z,90.26
2023-12-09T00:53:49.818Z,90.60
2023-12-09T00:56:33.030Z,90.10
2023-12-09T00:59:06.478Z,90.00
2023-12-09T01:01:36.919Z,90.56
2023-12-09T01:04:07.568Z,90.14
2023-12-09T01:06:37.284Z,89.98
2023-12-09T01:09:04.702Z,90.58
2023-12-09T01:11:31.838Z,90.58
2023-12-09T01:13:59.059Z,90.00
2023-12-09T01:16:26.173Z,90.23
2023-12-09T01:18:53.619Z,90.44
2023-12-09T01:21:20.850Z,90.36
2023-12-09T01:23:48.078Z,90.28
2023-12-09T01:26:15.267Z,90.07
2023-12-09T01:28:42.517Z,90.25
2023-12-09T01:31:09.844Z,89.86
2023-12-09T01:33:39.055Z,90.36
2023-12-09T01:36:06.308Z,90.22
2023-12-09T01:38:33.533Z,90.40
2023-12-09T01:41:00.673Z,90.30
2023-12-09T01:43:27.986Z,90.60
2023-12-09T01:45:57.322Z,90.22
2023-12-09T01:48:25.400Z,90.08
2023-12-09T01:50:52.786Z,90.45
2023-12-09T01:53:19.969Z,90.30
2023-12-09T01:55:48.114Z,90.44
2023-12-09T01:58:16.451Z,89.88
2023-12-09T02:00:46.764Z,90.49
2023-12-09T02:03:14.428Z,89.99
2023-12-09T02:05:43.268Z,90.09
2023-12-09T02:08:13.799Z,90.13
2023-12-09T02:10:41.798Z,90.08
2023-12-09T02:13:21.810Z,90.52
2023-12-09T02:15:55.460Z,90.75
2023-12-09T02:18:23.810Z,90.10
2023-12-09T02:20:53.437Z,90.36
2023-12-09T02:23:20.879Z,90.80
2023-12-09T02:25:51.220Z,90.65
2023-12-09T02:28:21.663Z,90.74
2023-12-09T02:34:11.708Z,90.64
2023-12-09T02:36:43.537Z,90.43
2023-12-09T02:39:11.770Z,90.44
2023-12-09T02:41:42.244Z,90.93
2023-12-09T02:44:09.621Z,91.03
2023-12-09T02:46:36.946Z,91.02
2023-12-09T02:49:14.832Z,91.02
2023-12-09T02:51:44.945Z,90.99
2023-12-09T02:54:17.052Z,91.24
2023-12-09T02:56:44.325Z,90.85
2023-12-09T02:59:11.461Z,91.17
2023-12-09T03:01:40.415Z,90.97
2023-12-09T03:04:09.593Z,90.97
2023-12-09T03:06:43.655Z,90.99
2023-12-09T03:09:10.966Z,90.95
2023-12-09T03:11:39.040Z,90.92
2023-12-09T03:14:30.971Z,91.05
2023-12-09T03:17:30.479Z,91.26
2023-12-09T03:19:57.999Z,90.90
2023-12-09T03:23:10.545Z,90.90
2023-12-09T03:25:48.826Z,91.32
2023-12-09T03:28:31.389Z,90.80
2023-12-09T03:31:05.613Z,91.03
2023-12-09T03:36:27.750Z,91.39
2023-12-09T03:38:59.268Z,90.70
2023-12-09T03:41:31.245Z,90.90
2023-12-09T03:44:00.995Z,91.40
2023-12-09T03:49:43.936Z,91.15
2023-12-09T03:52:30.481Z,91.50
2023-12-09T03:55:01.462Z,91.59
2023-12-09T03:57:40.446Z,91.58
2023-12-09T04:00:12.724Z,91.57
2023-12-09T04:02:45.500Z,90.96
2023-12-09T04:08:00.345Z,91.41
2023-12-09T04:10:32.125Z,91.39
2023-12-09T04:13:07.565Z,91.76
2023-12-09T04:15:42.713Z,91.85
2023-12-09T04:18:15.979Z,91.50
2023-12-09T04:20:43.541Z,91.59
2023-12-09T04:23:16.674Z,91.49
2023-12-09T04:25:43.967Z,91.42
2023-12-09T04:28:23.709Z,91.45
2023-12-09T04:31:11.434Z,91.52
2023-12-09T04:33:38.873Z,91.68
2023-12-09T04:36:08.940Z,91.44
2023-12-09T04:38:36.207Z,91.68
2023-12-09T04:41:03.441Z,92.03
2023-12-09T04:43:30.499Z,92.04
2023-12-09T04:45:57.593Z,92.26
2023-12-09T04:48:25.052Z,91.82
2023-12-09T04:50:52.994Z,91.87
2023-12-09T04:53:20.773Z,91.80
2023-12-09T04:55:48.065Z,91.66
2023-12-09T04:58:15.165Z,91.38
2023-12-09T05:00:42.610Z,91.52
2023-12-09T05:03:12.957Z,91.38
2023-12-09T05:05:40.197Z,91.39
2023-12-09T05:08:07.771Z,91.42
2023-12-09T05:10:34.871Z,91.60
2023-12-09T05:13:01.967Z,91.59
2023-12-09T05:15:33.591Z,91.75
2023-12-09T05:18:01.213Z,91.76
2023-12-09T05:20:28.420Z,91.55
2023-12-09T05:22:55.841Z,91.75
2023-12-09T05:25:22.910Z,92.14
2023-12-09T05:27:50.679Z,92.44
2023-12-09T05:30:17.921Z,92.05
2023-12-09T05:32:45.103Z,92.57
2023-12-09T05:35:12.261Z,92.55
2023-12-09T05:37:39.414Z,92.76
2023-12-09T05:40:08.012Z,92.40
2023-12-09T05:42:35.336Z,92.33
2023-12-09T05:45:08.116Z,92.20
2023-12-09T05:47:35.616Z,92.06
2023-12-09T05:50:02.960Z,91.63
2023-12-09T05:52:33.204Z,92.05
2023-12-09T05:55:00.498Z,91.91
2023-12-09T05:57:27.947Z,92.16
2023-12-09T05:59:58.798Z,91.90
2023-12-09T06:02:31.054Z,92.00
2023-12-09T06:04:58.468Z,91.68
2023-12-09T06:07:25.551Z,91.82
2023-12-09T06:09:52.763Z,91.15
2023-12-09T06:12:22.631Z,91.41
2023-12-09T06:14:49.827Z,91.78
2023-12-09T06:17:18.843Z,92.29
2023-12-09T06:19:48.478Z,92.30
2023-12-09T06:22:15.617Z,91.97
2023-12-09T06:24:46.006Z,91.79
2023-12-09T06:27:23.285Z,91.54
2023-12-09T06:29:52.210Z,91.95
2023-12-09T06:32:22.699Z,92.31
2023-12-09T06:34:50.148Z,92.12
2023-12-09T06:37:17.580Z,92.06
2023-12-09T06:39:47.555Z,92.42
2023-12-09T06:42:17.924Z,92.37
2023-12-09T06:44:45.263Z,91.74
2023-12-09T06:47:13.314Z,91.73
2023-12-09T06:49:49.503Z,91.59
2023-12-09T06:52:55.602Z,91.73
2023-12-09T06:56:04.772Z,91.47
2023-12-09T06:59:29.563Z,91.33
2023-12-09T07:01:57.554Z,90.77
2023-12-09T07:04:24.902Z,90.74
2023-12-09T07:06:52.035Z,90.57
2023-12-09T07:09:19.174Z,90.78
2023-12-09T07:11:46.393Z,90.54
2023-12-09T07:14:16.223Z,90.46
2023-12-09T07:16:43.338Z,90.70
2023-12-09T07:19:10.722Z,90.56
2023-12-09T07:21:37.945Z,90.57
2023-12-09T07:24:07.549Z,90.08
2023-12-09T07:26:36.274Z,90.08
2023-12-09T07:29:06.372Z,90.28
2023-12-09T07:31:34.030Z,90.34
2023-12-09T07:34:01.873Z,90.02
2023-12-09T07:36:29.026Z,89.73
2023-12-09T07:38:56.228Z,89.82
2023-12-09T07:41:23.393Z,90.00
2023-12-09T07:43:50.600Z,89.82
2023-12-09T07:46:17.759Z,89.50
2023-12-09T07:48:45.041Z,89.29
2023-12-09T07:51:12.553Z,88.44
2023-12-09T07:53:39.840Z,88.21
2023-12-09T07:57:06.343Z,88.15
2023-12-09T07:59:56.985Z,87.61
2023-12-09T08:02:24.636Z,87.46
2023-12-09T08:04:52.862Z,87.57
2023-12-09T08:07:57.887Z,87.27
2023-12-09T08:11:23.455Z,87.06
2023-12-09T08:14:39.787Z,87.19
2023-12-09T08:17:37.283Z,87.45
2023-12-09T08:20:46.584Z,87.38
2023-12-09T08:23:40.470Z,87.32
2023-12-09T08:39:26.422Z,86.40
2023-12-09T08:41:53.662Z,86.58
2023-12-09T08:44:20.728Z,86.07
2023-12-09T08:46:47.888Z,85.74
2023-12-09T08:49:15.032Z,85.41
2023-12-09T08:51:48.998Z,84.74
2023-12-09T08:54:16.796Z,85.39
2023-12-09T08:56:44.082Z,84.84
2023-12-09T08:59:12.140Z,84.69
2023-12-09T09:01:39.816Z,84.71
2023-12-09T09:04:07.534Z,84.41
2023-12-09T09:06:34.988Z,84.22
2023-12-09T09:09:02.208Z,83.92
2023-12-09T09:11:29.360Z,83.15
2023-12-09T09:13:56.893Z,84.00
2023-12-09T09:16:24.151Z,84.27
2023-12-09T09:18:51.543Z,83.71
2023-12-09T09:21:18.771Z,82.35
2023-12-09T09:23:45.884Z,82.90
2023-12-09T09:26:12.975Z,83.06
2023-12-09T09:28:40.227Z,83.50
2023-12-09T09:31:07.388Z,83.30
2023-12-09T09:33:34.545Z,82.62
2023-12-09T09:36:01.793Z,82.01
2023-12-09T09:38:28.948Z,82.29
2023-12-09T09:40:56.973Z,82.54
2023-12-09T09:43:26.477Z,82.90
2023-12-09T09:45:54.587Z,82.54
2023-12-09T09:48:25.281Z,83.22
2023-12-09T09:50:53.905Z,82.94
2023-12-09T09:53:27.825Z,81.91
2023-12-09T09:55:55.319Z,80.82
2023-12-09T09:58:22.769Z,80.13
2023-12-09T10:00:50.220Z,80.69
2023-12-09T10:03:17.527Z,80.02
2023-12-09T10:05:44.751Z,80.34
2023-12-09T10:08:11.985Z,80.44
2023-12-09T10:10:39.230Z,78.26
2023-12-09T10:13:06.337Z,78.94
2023-12-09T10:15:33.714Z,78.33
2023-12-09T10:18:03.109Z,76.43
2023-12-09T10:20:31.078Z,75.84
2023-12-09T10:23:01.153Z,76.97
2023-12-09T10:25:29.209Z,77.96
2023-12-09T10:27:57.230Z,76.23
2023-12-09T10:30:24.522Z,76.34
2023-12-09T10:32:53.260Z,75.61
2023-12-09T10:35:20.592Z,76.42
2023-12-09T10:37:51.057Z,77.00
2023-12-09T10:40:18.845Z,76.74
2023-12-09T10:42:46.008Z,77.26
2023-12-09T10:45:13.284Z,77.34
2023-12-09T10:47:40.640Z,76.86
2023-12-09T10:50:08.527Z,76.46
2023-12-09T10:52:37.746Z,77.08
2023-12-09T10:55:06.766Z,74.81
2023-12-09T10:57:34.643Z,75.17
2023-12-09T11:00:08.228Z,74.33
2023-12-09T11:02:36.306Z,74.83
2023-12-09T11:05:04.077Z,74.67
2023-12-09T11:07:31.285Z,72.73
2023-12-09T11:09:58.524Z,73.14
2023-12-09T11:12:31.614Z,73.58
2023-12-09T11:15:14.548Z,72.54
2023-12-09T11:17:45.261Z,71.97
2023-12-09T11:20:16.449Z,72.78
2023-12-09T11:22:47.937Z,71.83
2023-12-09T11:25:23.372Z,72.75
2023-12-09T11:27:52.272Z,72.44
2023-12-09T11:30:42.080Z,71.72
2023-12-09T11:33:09.851Z,71.60
2023-12-09T11:35:38.176Z,72.13
2023-12-09T11:38:06.787Z,72.01
2023-12-09T11:40:34.372Z,73.09
2023-12-09T11:43:03.344Z,72.05
2023-12-09T11:45:30.659Z,71.31
2023-12-09T11:47:59.779Z,70.79
2023-12-09T11:50:28.416Z,72.14
2023-12-09T11:52:55.684Z,71.73
2023-12-09T11:55:22.801Z,72.35
2023-12-09T11:57:50.258Z,71.68
2023-12-09T12:00:17.631Z,72.45
2023-12-09T12:02:44.865Z,72.60
2023-12-09T12:05:14.845Z,72.09
2023-12-09T12:07:42.026Z,72.00
2023-12-09T12:10:10.603Z,72.13
2023-12-09T12:12:38.196Z,72.98
2023-12-09T12:15:06.497Z,73.35
2023-12-09T12:17:41.091Z,72.25
2023-12-09T12:20:10.920Z,71.76
2023-12-09T12:22:39.617Z,72.43
2023-12-09T12:25:09.646Z,73.44
2023-12-09T12:27:37.633Z,71.74
2023-12-09T12:30:07.521Z,73.76
2023-12-09T12:32:39.489Z,71.94
2023-12-09T12:35:07.285Z,72.12
2023-12-09T12:37:34.595Z,73.06
2023-12-09T12:40:01.997Z,72.80
2023-12-09T12:42:30.864Z,72.78
2023-12-09T12:44:59.631Z,73.06
2023-12-09T12:47:26.914Z,72.57
2023-12-09T12:49:54.356Z,73.27
2023-12-09T12:52:21.633Z,72.91
2023-12-09T12:54:48.820Z,71.92
2023-12-09T12:57:16.012Z,71.98
2023-12-09T12:59:43.119Z,72.62
2023-12-09T13:02:10.356Z,72.32
2023-12-09T13:04:37.472Z,73.01
2023-12-09T13:07:05.443Z,71.85
2023-12-09T13:09:32.666Z,71.71
2023-12-09T13:11:59.830Z,71.90
2023-12-09T13:14:27.160Z,72.06
2023-12-09T13:16:55.063Z,72.14
2023-12-09T13:19:22.405Z,71.39
2023-12-09T13:21:49.606Z,72.38
2023-12-09T13:24:16.772Z,71.98
2023-12-09T13:26:43.882Z,72.96
2023-12-09T13:29:10.942Z,72.23
2023-12-09T13:31:38.062Z,72.09
2023-12-09T13:34:08.052Z,71.91
2023-12-09T13:36:37.676Z,72.03
2023-12-09T13:39:07.430Z,71.77
2023-12-09T13:41:34.999Z,71.97
2023-12-09T13:44:02.204Z,72.28
2023-12-09T13:46:29.321Z,72.83
2023-12-09T13:48:56.948Z,71.65
2023-12-09T13:51:24.332Z,72.77
2023-12-09T13:53:51.442Z,72.63
2023-12-09T13:56:18.623Z,72.69
2023-12-09T13:58:45.880Z,71.93
2023-12-09T14:01:13.073Z,72.83
2023-12-09T14:03:40.844Z,72.63
2023-12-09T14:06:08.314Z,72.67
2023-12-09T14:08:35.529Z,72.86
2023-12-09T14:11:02.897Z,73.13
2023-12-09T14:13:30.401Z,73.42
2023-12-09T14:15:57.478Z,73.99
2023-12-09T14:18:24.742Z,74.20
2023-12-09T14:20:51.998Z,75.18
2023-12-09T14:23:19.213Z,75.03
2023-12-09T14:25:46.324Z,74.68
2023-12-09T14:28:15.209Z,75.34
2023-12-09T14:30:42.454Z,75.58
2023-12-09T14:33:09.879Z,75.89
2023-12-09T14:35:37.138Z,76.18
2023-12-09T14:38:07.012Z,76.44
2023-12-09T14:40:34.077Z,76.41
2023-12-09T14:43:09.876Z,76.30
2023-12-09T14:45:38.267Z,76.95
2023-12-09T14:48:08.193Z,76.94
2023-12-09T14:50:36.273Z,77.45
2023-12-09T14:53:03.657Z,77.22
2023-12-09T14:55:30.837Z,76.79
2023-12-09T14:57:58.043Z,76.78
2023-12-09T15:00:25.278Z,77.17
2023-12-09T15:02:52.564Z,77.18
2023-12-09T15:05:19.703Z,77.97
2023-12-09T15:07:47.166Z,77.87
2023-12-09T15:10:14.591Z,78.13
2023-12-09T15:12:41.741Z,78.55
2023-12-09T15:15:09.732Z,79.16
2023-12-09T15:17:38.504Z,79.98
2023-12-09T15:20:10.347Z,80.37
2023-12-09T15:22:38.138Z,80.51
2023-12-09T15:25:05.869Z,80.88
2023-12-09T15:27:33.091Z,80.42
2023-12-09T15:30:00.380Z,80.71
2023-12-09T15:32:28.070Z,80.83
2023-12-09T15:34:55.596Z,81.11
2023-12-09T15:37:22.994Z,81.34
2023-12-09T15:39:50.100Z,81.17
2023-12-09T15:42:17.776Z,81.46
2023-12-09T15:44:45.072Z,81.73
2023-12-09T15:47:12.929Z,81.87
2023-12-09T15:49:41.317Z,81.75
2023-12-09T15:52:08.482Z,82.25
2023-12-09T15:54:36.391Z,82.61
2023-12-09T15:57:04.451Z,82.93
2023-12-09T15:59:31.660Z,83.25
2023-12-09T16:01:58.806Z,83.27
2023-12-09T16:04:26.171Z,83.97
2023-12-09T16:06:53.389Z,84.04
2023-12-09T16:09:20.636Z,83.94
2023-12-09T16:11:48.753Z,84.04
2023-12-09T16:14:15.828Z,84.44
2023-12-09T16:16:44.707Z,84.26
2023-12-09T16:19:11.956Z,84.42
2023-12-09T16:21:39.262Z,84.42
2023-12-09T16:24:06.533Z,84.24
2023-12-09T16:26:34.957Z,84.46
2023-12-09T16:29:02.392Z,84.24
2023-12-09T16:31:29.550Z,84.01
2023-12-09T16:33:56.866Z,84.18
2023-12-09T16:36:25.066Z,84.49
2023-12-09T16:38:55.481Z,84.44
2023-12-09T16:41:23.869Z,84.11
2023-12-09T16:43:51.299Z,84.03
2023-12-09T16:46:18.720Z,84.08
2023-12-09T16:48:46.168Z,83.85
2023-12-09T16:51:13.990Z,84.15
2023-12-09T16:53:41.104Z,84.10
2023-12-09T16:56:09.427Z,84.16
2023-12-09T16:58:36.578Z,84.24
2023-12-09T17:01:04.044Z,83.79
2023-12-09T17:03:31.585Z,83.71
2023-12-09T17:05:58.733Z,83.69
2023-12-09T17:08:25.899Z,83.21
2023-12-09T17:10:54.559Z,83.46
2023-12-09T17:13:21.650Z,83.49
2023-12-09T17:15:48.976Z,83.54
2023-12-09T17:18:16.280Z,83.53
2023-12-09T17:20:43.550Z,83.86
2023-12-09T17:23:10.675Z,83.80
2023-12-09T17:25:38.247Z,84.13
2023-12-09T17:28:05.371Z,84.05
2023-12-09T17:30:32.655Z,84.28
2023-12-09T17:32:59.998Z,84.24
2023-12-09T17:35:30.143Z,84.34
2023-12-09T17:37:57.402Z,84.34
2023-12-09T17:40:24.480Z,84.56
2023-12-09T17:42:52.274Z,84.43
2023-12-09T17:45:19.667Z,84.48
2023-12-09T17:47:46.906Z,84.70
2023-12-09T17:50:14.021Z,84.27
2023-12-09T17:52:42.016Z,84.45
2023-12-09T17:55:09.919Z,84.84
2023-12-09T17:57:37.308Z,84.80
2023-12-09T18:00:05.322Z,85.19
2023-12-09T18:02:32.464Z,85.70
2023-12-09T18:04:59.596Z,85.32
2023-12-09T18:07:27.219Z,84.86
2023-12-09T18:09:54.336Z,84.85
2023-12-09T18:12:21.474Z,84.97
2023-12-09T18:14:48.615Z,85.00
2023-12-09T18:17:15.771Z,85.24
2023-12-09T18:19:46.707Z,85.37
2023-12-09T18:22:14.504Z,85.63
2023-12-09T18:24:41.987Z,85.61
2023-12-09T18:27:09.348Z,84.93
2023-12-09T18:29:36.413Z,85.19
2023-12-09T18:32:03.857Z,84.74
2023-12-09T18:34:31.004Z,84.98
2023-12-09T18:36:58.140Z,84.85
2023-12-09T18:39:25.235Z,84.63
2023-12-09T18:41:52.325Z,84.44
2023-12-09T18:44:19.384Z,84.49
2023-12-09T18:46:46.561Z,84.27
2023-12-09T18:49:13.757Z,84.09
2023-12-09T18:51:40.964Z,83.88
2023-12-09T18:54:08.756Z,83.88
2023-12-09T18:56:38.767Z,83.91
2023-12-09T18:59:05.871Z,83.67
2023-12-09T19:01:33.065Z,83.40
2023-12-09T19:04:01.946Z,83.49
2023-12-09T19:06:31.279Z,83.11
2023-12-09T19:09:03.900Z,83.44
2023-12-09T19:11:31.435Z,83.08
2023-12-09T19:13:59.324Z,82.77
2023-12-09T19:16:26.815Z,83.09
2023-12-09T19:18:56.655Z,83.15
2023-12-09T19:21:24.072Z,83.13
2023-12-09T19:23:51.509Z,83.47
2023-12-09T19:26:18.882Z,83.82
2023-12-09T19:28:46.119Z,83.60
2023-12-09T19:31:13.345Z,84.27
2023-12-09T19:33:40.930Z,84.47
2023-12-09T19:36:08.335Z,84.47
2023-12-09T19:38:35.593Z,84.39
2023-12-09T19:41:02.715Z,84.19
2023-12-09T19:43:29.859Z,84.35
2023-12-09T19:45:57.033Z,84.29
2023-12-09T19:48:24.433Z,84.63
2023-12-09T19:50:51.713Z,84.84
2023-12-09T19:53:19.335Z,84.86
2023-12-09T19:55:46.680Z,84.81
2023-12-09T19:58:13.789Z,85.04
2023-12-09T20:00:42.252Z,85.48
2023-12-09T20:03:54.461Z,85.29
2023-12-09T20:06:21.960Z,85.27
2023-12-09T20:08:49.417Z,85.24
2023-12-09T20:11:17.565Z,84.70
2023-12-09T20:13:45.571Z,84.96
2023-12-09T20:16:12.754Z,85.02
2023-12-09T20:18:40.230Z,84.44
2023-12-09T20:21:08.537Z,85.05
2023-12-09T20:23:35.692Z,84.61
2023-12-09T20:26:03.082Z,84.13
2023-12-09T20:28:30.615Z,84.56
2023-12-09T20:31:01.455Z,84.13
2023-12-09T20:33:28.885Z,84.30
2023-12-09T20:35:56.507Z,84.09
2023-12-09T20:38:23.684Z,84.12
2023-12-09T20:40:51.582Z,84.25
2023-12-09T20:43:18.899Z,84.55
2023-12-09T20:45:46.135Z,84.30
2023-12-09T20:48:13.504Z,84.53
2023-12-09T20:50:40.765Z,84.56
2023-12-09T20:53:10.794Z,84.21
2023-12-09T20:55:37.958Z,84.64
2023-12-09T20:58:05.415Z,84.46
2023-12-09T21:00:32.614Z,85.14
2023-12-09T21:02:59.753Z,86.09
2023-12-09T21:05:26.918Z,86.75
2023-12-09T21:07:55.683Z,87.88
2023-12-09T21:10:23.361Z,88.25
2023-12-09T21:12:51.608Z,88.85
2023-12-09T21:15:19.172Z,89.47
2023-12-09T21:17:46.626Z,89.49
2023-12-09T21:20:13.915Z,89.43
2023-12-09T21:22:41.063Z,89.36
2023-12-09T21:25:10.738Z,89.54
2023-12-09T21:27:38.248Z,90.13
2023-12-09T21:30:06.941Z,89.72
2023-12-09T21:32:35.088Z,89.82
2023-12-09T21:35:02.189Z,90.39
2023-12-09T21:37:29.283Z,90.29
2023-12-09T21:39:56.597Z,90.57
2023-12-09T21:42:23.768Z,90.69
2023-12-09T21:44:53.824Z,91.18
2023-12-09T21:47:22.951Z,91.39
2023-12-09T21:49:50.259Z,91.35
2023-12-09T21:52:17.578Z,92.14
2023-12-09T21:54:45.573Z,92.00
2023-12-09T21:57:12.760Z,91.88
2023-12-09T21:59:40.158Z,91.22
2023-12-09T22:02:07.312Z,91.54
2023-12-09T22:04:34.519Z,91.32
2023-12-09T22:07:01.600Z,91.50
2023-12-09T22:09:28.770Z,91.58
2023-12-09T22:11:55.860Z,92.10
2023-12-09T22:14:23.007Z,92.02
2023-12-09T22:16:50.298Z,92.45
2023-12-09T22:19:17.613Z,92.05
2023-12-09T22:21:45.366Z,93.18
2023-12-09T22:24:12.576Z,94.10
2023-12-09T22:26:43.673Z,93.42
2023-12-09T22:29:11.141Z,92.95
2023-12-09T22:31:42.733Z,93.41
2023-12-09T22:34:10.871Z,93.98
2023-12-09T22:36:38.349Z,94.06
2023-12-09T22:39:09.106Z,94.06
2023-12-09T22:41:36.467Z,94.13
2023-12-09T22:44:05.474Z,94.61
2023-12-09T22:46:33.048Z,94.97
2023-12-09T22:49:01.039Z,94.85
2023-12-09T22:51:29.053Z,94.84
2023-12-09T22:53:56.419Z,95.35
2023-12-09T22:56:24.251Z,95.74
2023-12-09T22:58:52.898Z,95.50
2023-12-09T23:01:24.580Z,96.13
2023-12-09T23:03:51.896Z,95.74
2023-12-09T23:06:19.609Z,96.05
2023-12-09T23:08:47.261Z,96.52
2023-12-09T23:11:14.718Z,96.86
2023-12-09T23:13:41.993Z,97.33
2023-12-09T23:16:10.806Z,97.33
2023-12-09T23:18:39.135Z,97.34
2023-12-09T23:21:07.763Z,97.32
2023-12-09T23:23:35.447Z,97.37
2023-12-09T23:26:02.797Z,96.86
2023-12-09T23:28:30.037Z,96.63
2023-12-09T23:30:57.264Z,96.85
2023-12-09T23:33:24.857Z,96.88
2023-12-09T23:35:52.076Z,96.87
2023-12-09T23:38:19.535Z,96.68
2023-12-09T23:40:46.670Z,96.67
2023-12-09T23:43:13.769Z,96.68
2023-12-09T23:45:41.649Z,97.35
2023-12-09T23:48:09.039Z,97.36
2023-12-09T23:50:36.278Z,97.62
2023-12-09T23:53:03.665Z,97.89
2023-12-09T23:55:30.813Z,97.89
2023-12-09T23:57:58.016Z,98.48
